createdAt,value
2023-01-09T00:00:43.797Z,85.96
2023-01-09T00:05:45.256Z,85.80
2023-01-09T00:10:49.760Z,85.31
2023-01-09T00:15:51.489Z,85.39
2023-01-09T00:20:52.929Z,85.42
2023-01-09T00:26:08.901Z,84.87
2023-01-09T00:31:11.172Z,84.66
2023-01-09T00:36:12.654Z,84.82
2023-01-09T00:41:19.833Z,84.98
2023-01-09T00:46:31.274Z,84.86
2023-01-09T00:51:32.703Z,85.00
2023-01-09T00:56:35.688Z,84.93
2023-01-09T01:01:37.245Z,84.69
2023-01-09T01:06:57.133Z,84.62
2023-01-09T01:11:58.544Z,85.44
2023-01-09T01:17:00.349Z,85.19
2023-01-09T01:22:02.801Z,85.60
2023-01-09T01:27:04.276Z,85.85
2023-01-09T01:32:05.761Z,85.88
2023-01-09T01:37:07.420Z,86.37
2023-01-09T01:42:11.604Z,85.85
2023-01-09T01:47:14.502Z,85.86
2023-01-09T01:52:17.604Z,85.63
2023-01-09T01:57:19.120Z,85.15
2023-01-09T02:02:23.701Z,86.18
2023-01-09T02:07:25.385Z,86.09
2023-01-09T02:12:28.004Z,85.80
2023-01-09T02:17:59.550Z,85.95
2023-01-09T02:23:55.100Z,85.60
2023-01-09T02:29:20.992Z,85.75
2023-01-09T02:34:30.893Z,86.13
2023-01-09T02:39:51.420Z,86.69
2023-01-09T02:44:53.495Z,86.16
2023-01-09T02:49:57.699Z,86.05
2023-01-09T02:55:04.942Z,85.34
2023-01-09T03:00:06.524Z,86.34
2023-01-09T03:05:30.714Z,86.43
2023-01-09T03:10:41.451Z,87.04
2023-01-09T03:15:45.849Z,87.02
2023-01-09T03:20:49.672Z,86.64
2023-01-09T03:25:51.093Z,86.27
2023-01-09T03:30:52.547Z,86.06
2023-01-09T03:35:53.975Z,87.50
2023-01-09T03:40:55.447Z,87.25
2023-01-09T03:45:56.939Z,86.85
2023-01-09T03:50:58.687Z,86.64
2023-01-09T03:56:00.379Z,86.10
2023-01-09T04:01:05.286Z,86.50
2023-01-09T04:06:07.284Z,86.80
2023-01-09T04:11:08.752Z,86.67
2023-01-09T04:16:10.199Z,86.93
2023-01-09T04:21:11.671Z,87.15
2023-01-09T04:26:13.213Z,87.00
2023-01-09T04:31:15.802Z,87.09
2023-01-09T04:36:17.284Z,86.96
2023-01-09T04:41:43.592Z,86.65
2023-01-09T04:46:45.191Z,87.68
2023-01-09T04:51:47.203Z,87.05
2023-01-09T04:56:48.722Z,86.79
2023-01-09T05:01:52.263Z,86.80
2023-01-09T05:06:53.924Z,86.73
2023-01-09T05:11:55.423Z,86.58
2023-01-09T05:16:56.891Z,86.45
2023-01-09T05:21:58.356Z,86.41
2023-01-09T05:26:59.858Z,86.07
2023-01-09T05:32:01.563Z,86.63
2023-01-09T05:37:03.066Z,87.13
2023-01-09T05:42:04.651Z,87.01
2023-01-09T05:47:06.129Z,86.78
2023-01-09T05:52:08.556Z,87.45
2023-01-09T05:57:09.976Z,87.36
2023-01-09T06:02:11.611Z,87.76
2023-01-09T06:07:16.630Z,87.09
2023-01-09T06:12:21.018Z,87.42
2023-01-09T06:17:22.492Z,87.43
2023-01-09T06:22:23.898Z,86.57
2023-01-09T06:27:25.682Z,85.96
2023-01-09T06:32:27.147Z,86.34
2023-01-09T06:37:28.710Z,86.81
2023-01-09T06:42:30.141Z,87.18
2023-01-09T06:47:31.557Z,87.04
2023-01-09T06:52:32.961Z,86.51
2023-01-09T06:57:34.757Z,86.58
2023-01-09T07:02:36.277Z,86.70
2023-01-09T07:07:41.301Z,87.15
2023-01-09T07:12:42.736Z,87.07
2023-01-09T07:17:44.196Z,87.69
2023-01-09T07:22:46.462Z,87.41
2023-01-09T07:27:48.121Z,87.70
2023-01-09T07:32:49.597Z,88.00
2023-01-09T07:37:51.080Z,88.45
2023-01-09T07:42:53.451Z,87.91
2023-01-09T07:47:54.922Z,88.67
2023-01-09T07:52:56.433Z,88.62
2023-01-09T07:57:57.865Z,88.12
2023-01-09T08:02:59.331Z,88.67
2023-01-09T08:08:01.955Z,89.25
2023-01-09T08:13:03.402Z,88.86
2023-01-09T08:18:04.912Z,89.45
2023-01-09T08:23:06.350Z,88.86
2023-01-09T08:28:09.332Z,89.00
2023-01-09T08:33:11.075Z,89.22
2023-01-09T08:38:12.796Z,89.42
2023-01-09T08:43:32.947Z,90.15
2023-01-09T08:48:34.353Z,90.03
2023-01-09T08:53:35.799Z,89.89
2023-01-09T08:58:37.291Z,90.50
2023-01-09T09:03:38.708Z,89.52
2023-01-09T09:08:40.136Z,90.55
2023-01-09T09:13:41.547Z,90.16
2023-01-09T09:18:42.949Z,91.87
2023-01-09T09:23:44.431Z,92.00
2023-01-09T09:28:45.857Z,91.71
2023-01-09T09:33:47.487Z,91.72
2023-01-09T09:38:48.893Z,91.48
2023-01-09T09:44:35.227Z,91.73
2023-01-09T09:49:56.222Z,91.95
2023-01-09T09:55:02.527Z,91.89
2023-01-09T10:00:06.460Z,92.53
2023-01-09T10:05:17.376Z,92.88
2023-01-09T10:10:28.121Z,93.18
2023-01-09T10:15:40.554Z,93.39
2023-01-09T10:20:50.572Z,94.36
2023-01-09T10:26:15.323Z,95.28
2023-01-09T10:31:48.858Z,94.91
2023-01-09T10:37:20.163Z,94.99
2023-01-09T10:42:44.345Z,96.01
2023-01-09T10:47:46.539Z,95.19
2023-01-09T10:52:51.049Z,95.39
2023-01-09T10:57:58.598Z,95.50
2023-01-09T11:03:00.099Z,95.37
2023-01-09T11:08:12.048Z,95.53
2023-01-09T11:13:25.110Z,95.54
2023-01-09T11:18:27.540Z,95.23
2023-01-09T11:23:31.828Z,95.24
2023-01-09T11:28:33.310Z,95.33
2023-01-09T11:33:41.260Z,94.92
2023-01-09T11:38:57.781Z,95.05
2023-01-09T11:44:00.450Z,94.89
2023-01-09T11:49:04.311Z,95.26
2023-01-09T11:54:29.605Z,95.24
2023-01-09T11:59:31.584Z,95.16
2023-01-09T12:04:54.631Z,95.31
2023-01-09T12:10:03.287Z,95.17
2023-01-09T12:15:26.676Z,95.29
2023-01-09T12:20:58.716Z,95.61
2023-01-09T12:26:24.155Z,94.86
2023-01-09T12:31:48.632Z,94.11
2023-01-09T12:37:11.900Z,92.83
2023-01-09T12:42:31.987Z,92.54
2023-01-09T12:48:22.942Z,92.03
2023-01-09T12:53:31.149Z,91.01
2023-01-09T12:58:42.996Z,90.50
2023-01-09T13:03:52.409Z,89.79
2023-01-09T13:09:13.147Z,89.51
2023-01-09T13:14:24.527Z,88.78
2023-01-09T13:19:39.452Z,87.98
2023-01-09T13:25:06.385Z,88.84
2023-01-09T13:30:17.987Z,88.61
2023-01-09T13:35:19.510Z,88.28
2023-01-09T13:40:26.689Z,88.95
2023-01-09T13:45:31.341Z,88.40
2023-01-09T13:50:32.773Z,88.42
2023-01-09T13:55:36.206Z,88.20
2023-01-09T14:00:38.146Z,86.44
2023-01-09T14:05:39.505Z,87.27
2023-01-09T14:10:43.693Z,87.01
2023-01-09T14:15:47.097Z,86.74
2023-01-09T14:20:58.747Z,86.58
2023-01-09T14:26:01.283Z,85.77
2023-01-09T14:31:05.003Z,86.76
2023-01-09T14:36:22.168Z,86.21
2023-01-09T14:42:03.925Z,86.10
2023-01-09T14:47:17.645Z,86.26
2023-01-09T14:52:24.802Z,86.32
2023-01-09T14:57:28.800Z,85.44
2023-01-09T15:02:33.856Z,84.54
2023-01-09T15:07:44.242Z,84.18
2023-01-09T15:12:49.333Z,84.30
2023-01-09T15:18:03.275Z,83.48
2023-01-09T15:23:05.459Z,83.27
2023-01-09T15:28:32.012Z,83.83
2023-01-09T15:33:34.745Z,83.63
2023-01-09T15:38:36.307Z,83.22
2023-01-09T15:43:43.379Z,83.28
2023-01-09T15:48:45.161Z,83.45
2023-01-09T15:53:51.071Z,82.20
2023-01-09T15:58:54.504Z,83.63
2023-01-09T16:04:03.796Z,82.83
2023-01-09T16:09:14.850Z,83.57
2023-01-09T16:14:16.225Z,84.08
2023-01-09T16:19:45.843Z,83.54
2023-01-09T16:24:48.544Z,83.32
2023-01-09T16:29:57.399Z,83.29
2023-01-09T16:35:06.031Z,82.90
2023-01-09T16:40:13.815Z,83.15
2023-01-09T16:45:15.386Z,83.38
2023-01-09T16:50:16.898Z,83.57
2023-01-09T16:55:18.453Z,83.69
2023-01-09T17:00:21.279Z,84.18
2023-01-09T17:05:22.735Z,84.21
2023-01-09T17:10:25.456Z,84.00
2023-01-09T17:15:27.026Z,83.93
2023-01-09T17:20:29.862Z,83.84
2023-01-09T17:25:50.000Z,83.54
2023-01-09T17:30:51.472Z,83.64
2023-01-09T17:35:53.404Z,83.18
2023-01-09T17:40:57.785Z,83.08
2023-01-09T17:46:00.109Z,82.81
2023-01-09T17:51:01.729Z,82.77
2023-01-09T17:56:04.918Z,82.43
2023-01-09T18:01:06.437Z,82.20
2023-01-09T18:06:09.674Z,81.94
2023-01-09T18:11:14.811Z,81.69
2023-01-09T18:16:19.186Z,81.59
2023-01-09T18:21:23.284Z,81.29
2023-01-09T18:26:24.739Z,81.27
2023-01-09T18:31:28.256Z,81.07
2023-01-09T18:36:30.230Z,80.95
2023-01-09T18:41:32.288Z,81.43
2023-01-09T18:46:33.763Z,81.37
2023-01-09T18:51:36.648Z,81.41
2023-01-09T18:56:38.161Z,81.31
2023-01-09T19:01:39.658Z,80.77
2023-01-09T19:06:41.075Z,81.07
2023-01-09T19:11:44.412Z,80.89
2023-01-09T19:16:46.237Z,81.22
2023-01-09T19:21:47.712Z,81.19
2023-01-09T19:26:49.498Z,81.24
2023-01-09T19:31:53.025Z,81.16
2023-01-09T19:36:54.491Z,81.04
2023-01-09T19:41:56.066Z,81.09
2023-01-09T19:46:57.467Z,81.32
2023-01-09T19:52:00.667Z,81.30
2023-01-09T19:57:02.211Z,81.81
2023-01-09T20:02:03.733Z,82.06
2023-01-09T20:07:06.010Z,82.69
2023-01-09T20:12:07.583Z,83.15
2023-01-09T20:17:09.067Z,83.33
2023-01-09T20:22:10.473Z,83.48
2023-01-09T20:27:11.909Z,83.46
2023-01-09T20:32:13.330Z,83.84
2023-01-09T20:37:14.782Z,83.74
2023-01-09T20:42:16.234Z,83.58
2023-01-09T20:47:17.686Z,83.36
2023-01-09T20:52:19.127Z,82.97
2023-01-09T20:57:20.577Z,82.96
2023-01-09T21:02:22.458Z,83.03
2023-01-09T21:07:25.029Z,82.84
2023-01-09T21:12:34.800Z,82.93
2023-01-09T21:17:38.893Z,83.01
2023-01-09T21:22:40.433Z,82.76
2023-01-09T21:27:44.381Z,83.24
2023-01-09T21:32:45.806Z,83.36
2023-01-09T21:37:47.210Z,83.23
2023-01-09T21:43:07.114Z,83.05
2023-01-09T21:48:08.604Z,82.95
2023-01-09T21:53:10.083Z,83.02
2023-01-09T21:58:11.497Z,82.97
2023-01-09T22:03:17.275Z,83.01
2023-01-09T22:08:18.772Z,83.01
2023-01-09T22:13:20.458Z,83.16
2023-01-09T22:18:22.415Z,83.12
2023-01-09T22:23:23.859Z,83.00
2023-01-09T22:28:25.359Z,83.36
2023-01-09T22:33:26.761Z,83.12
2023-01-09T22:38:28.173Z,82.94
2023-01-09T22:43:30.044Z,82.87
2023-01-09T22:48:32.376Z,82.84
2023-01-09T22:53:34.320Z,83.19
2023-01-09T22:58:36.213Z,83.36
2023-01-09T23:03:38.106Z,83.47
2023-01-09T23:08:40.083Z,83.28
2023-01-09T23:13:41.804Z,83.20
2023-01-09T23:18:43.204Z,83.30
2023-01-09T23:23:45.010Z,83.00
2023-01-09T23:28:46.465Z,82.74
2023-01-09T23:33:47.921Z,82.58
2023-01-09T23:38:49.575Z,82.28
2023-01-09T23:43:50.989Z,81.80
2023-01-09T23:48:52.399Z,81.18
2023-01-09T23:53:53.845Z,80.88
2023-01-09T23:58:55.269Z,80.33
